sensor_id;sensor_type;location;lat;lon;timestamp;temperature;humidity
25652;DHT22;13508;50.734;4.232;2022-08-19T00:00:07;19.70;99.90
25652;DHT22;13508;50.734;4.232;2022-08-19T00:03:12;19.80;99.90
25652;DHT22;13508;50.734;4.232;2022-08-19T00:06:15;19.90;99.90
25652;DHT22;13508;50.734;4.232;2022-08-19T00:09:20;19.90;99.90
25652;DHT22;13508;50.734;4.232;2022-08-19T00:12:23;20.00;99.90
25652;DHT22;13508;50.734;4.232;2022-08-19T00:15:27;19.90;99.90
25652;DHT22;13508;50.734;4.232;2022-08-19T00:18:31;19.70;99.90
25652;DHT22;13508;50.734;4.232;2022-08-19T00:21:34;19.80;99.90
25652;DHT22;13508;50.734;4.232;2022-08-19T00:24:41;19.80;99.90
25652;DHT22;13508;50.734;4.232;2022-08-19T00:27:46;19.90;99.90
25652;DHT22;13508;50.734;4.232;2022-08-19T00:30:50;20.10;99.90
25652;DHT22;13508;50.734;4.232;2022-08-19T00:33:54;20.10;99.90
25652;DHT22;13508;50.734;4.232;2022-08-19T00:36:58;20.10;99.90
25652;DHT22;13508;50.734;4.232;2022-08-19T00:40:04;20.10;99.90
25652;DHT22;13508;50.734;4.232;2022-08-19T00:43:09;20.10;99.90
25652;DHT22;13508;50.734;4.232;2022-08-19T00:46:13;20.00;99.90
25652;DHT22;13508;50.734;4.232;2022-08-19T00:49:20;20.00;99.90
25652;DHT22;13508;50.734;4.232;2022-08-19T00:52:33;20.00;99.90
25652;DHT22;13508;50.734;4.232;2022-08-19T00:55:38;20.30;99.90
25652;DHT22;13508;50.734;4.232;2022-08-19T00:58:41;20.10;99.90
25652;DHT22;13508;50.734;4.232;2022-08-19T01:01:48;20.20;99.90
25652;DHT22;13508;50.734;4.232;2022-08-19T01:04:51;20.20;99.90
25652;DHT22;13508;50.734;4.232;2022-08-19T01:07:56;20.10;99.90
25652;DHT22;13508;50.734;4.232;2022-08-19T01:11:00;20.10;99.90
25652;DHT22;13508;50.734;4.232;2022-08-19T01:14:03;20.10;99.90
25652;DHT22;13508;50.734;4.232;2022-08-19T01:17:09;20.00;99.90
25652;DHT22;13508;50.734;4.232;2022-08-19T01:20:16;20.00;99.90
25652;DHT22;13508;50.734;4.232;2022-08-19T01:23:19;19.90;99.90
25652;DHT22;13508;50.734;4.232;2022-08-19T01:26:24;19.50;99.90
25652;DHT22;13508;50.734;4.232;2022-08-19T01:29:28;19.20;99.90
25652;DHT22;13508;50.734;4.232;2022-08-19T01:32:36;18.90;99.90
25652;DHT22;13508;50.734;4.232;2022-08-19T01:35:40;18.80;99.90
25652;DHT22;13508;50.734;4.232;2022-08-19T01:38:44;18.90;99.90
25652;DHT22;13508;50.734;4.232;2022-08-19T01:41:48;18.90;99.90
25652;DHT22;13508;50.734;4.232;2022-08-19T01:44:51;18.70;99.90
25652;DHT22;13508;50.734;4.232;2022-08-19T01:47:55;18.60;99.90
25652;DHT22;13508;50.734;4.232;2022-08-19T01:50:58;18.70;99.90
25652;DHT22;13508;50.734;4.232;2022-08-19T01:54:01;18.50;99.90
25652;DHT22;13508;50.734;4.232;2022-08-19T01:57:08;18.50;99.90
25652;DHT22;13508;50.734;4.232;2022-08-19T02:00:14;18.50;99.90
25652;DHT22;13508;50.734;4.232;2022-08-19T02:03:18;18.50;99.90
25652;DHT22;13508;50.734;4.232;2022-08-19T02:06:22;18.50;99.90
25652;DHT22;13508;50.734;4.232;2022-08-19T02:09:25;18.50;99.90
25652;DHT22;13508;50.734;4.232;2022-08-19T02:12:28;18.60;99.90
25652;DHT22;13508;50.734;4.232;2022-08-19T02:15:32;18.40;99.90
25652;DHT22;13508;50.734;4.232;2022-08-19T02:18:35;18.20;99.90
25652;DHT22;13508;50.734;4.232;2022-08-19T02:21:41;18.20;99.90
25652;DHT22;13508;50.734;4.232;2022-08-19T02:24:46;18.20;99.90
25652;DHT22;13508;50.734;4.232;2022-08-19T02:27:50;18.20;99.90
25652;DHT22;13508;50.734;4.232;2022-08-19T02:30:54;18.20;99.90
25652;DHT22;13508;50.734;4.232;2022-08-19T02:33:57;18.00;99.90
25652;DHT22;13508;50.734;4.232;2022-08-19T02:37:00;18.00;99.90
25652;DHT22;13508;50.734;4.232;2022-08-19T02:40:04;18.10;99.90
25652;DHT22;13508;50.734;4.232;2022-08-19T02:43:09;18.20;99.90
25652;DHT22;13508;50.734;4.232;2022-08-19T02:46:19;18.30;99.90
25652;DHT22;13508;50.734;4.232;2022-08-19T02:49:24;18.50;99.90
25652;DHT22;13508;50.734;4.232;2022-08-19T02:52:27;18.70;99.90
25652;DHT22;13508;50.734;4.232;2022-08-19T02:55:31;18.80;99.90
25652;DHT22;13508;50.734;4.232;2022-08-19T02:58:34;18.70;99.90
25652;DHT22;13508;50.734;4.232;2022-08-19T03:01:41;18.80;99.90
25652;DHT22;13508;50.734;4.232;2022-08-19T03:04:44;18.70;99.90
25652;DHT22;13508;50.734;4.232;2022-08-19T03:07:48;18.50;99.90
25652;DHT22;13508;50.734;4.232;2022-08-19T03:10:52;18.40;99.90
25652;DHT22;13508;50.734;4.232;2022-08-19T03:13:56;18.50;99.90
25652;DHT22;13508;50.734;4.232;2022-08-19T03:17:00;18.40;99.90
25652;DHT22;13508;50.734;4.232;2022-08-19T03:20:04;18.50;99.90
25652;DHT22;13508;50.734;4.232;2022-08-19T03:23:07;18.50;99.90
25652;DHT22;13508;50.734;4.232;2022-08-19T03:26:11;18.20;99.90
25652;DHT22;13508;50.734;4.232;2022-08-19T03:29:15;18.20;99.90
25652;DHT22;13508;50.734;4.232;2022-08-19T03:32:18;18.30;99.90
25652;DHT22;13508;50.734;4.232;2022-08-19T03:35:21;18.30;99.90
25652;DHT22;13508;50.734;4.232;2022-08-19T03:38:24;18.20;99.90
25652;DHT22;13508;50.734;4.232;2022-08-19T03:41:31;18.10;99.90
25652;DHT22;13508;50.734;4.232;2022-08-19T03:44:35;17.90;99.90
25652;DHT22;13508;50.734;4.232;2022-08-19T03:47:40;17.80;99.90
25652;DHT22;13508;50.734;4.232;2022-08-19T03:50:44;17.80;99.90
25652;DHT22;13508;50.734;4.232;2022-08-19T03:53:48;17.80;99.90
25652;DHT22;13508;50.734;4.232;2022-08-19T03:56:53;17.80;99.90
25652;DHT22;13508;50.734;4.232;2022-08-19T03:59:57;17.90;99.90
25652;DHT22;13508;50.734;4.232;2022-08-19T04:02:59;17.90;99.90
25652;DHT22;13508;50.734;4.232;2022-08-19T04:06:14;17.90;99.90
25652;DHT22;13508;50.734;4.232;2022-08-19T04:09:19;17.90;99.90
25652;DHT22;13508;50.734;4.232;2022-08-19T04:12:23;17.90;99.90
25652;DHT22;13508;50.734;4.232;2022-08-19T04:15:26;17.90;99.90
25652;DHT22;13508;50.734;4.232;2022-08-19T04:18:32;17.90;99.90
25652;DHT22;13508;50.734;4.232;2022-08-19T04:21:35;17.60;99.90
25652;DHT22;13508;50.734;4.232;2022-08-19T04:24:39;17.50;99.90
25652;DHT22;13508;50.734;4.232;2022-08-19T04:27:43;17.40;99.90
25652;DHT22;13508;50.734;4.232;2022-08-19T04:30:51;17.40;99.90
25652;DHT22;13508;50.734;4.232;2022-08-19T04:33:57;17.40;99.90
25652;DHT22;13508;50.734;4.232;2022-08-19T04:37:00;17.50;99.90
25652;DHT22;13508;50.734;4.232;2022-08-19T04:40:05;17.60;99.90
25652;DHT22;13508;50.734;4.232;2022-08-19T04:43:28;17.50;99.90
25652;DHT22;13508;50.734;4.232;2022-08-19T04:46:32;17.50;99.90
25652;DHT22;13508;50.734;4.232;2022-08-19T04:49:35;17.40;99.90
25652;DHT22;13508;50.734;4.232;2022-08-19T04:52:39;17.60;99.90
25652;DHT22;13508;50.734;4.232;2022-08-19T04:55:46;17.60;99.90
25652;DHT22;13508;50.734;4.232;2022-08-19T04:58:49;17.60;99.90
25652;DHT22;13508;50.734;4.232;2022-08-19T05:01:54;17.70;99.90
25652;DHT22;13508;50.734;4.232;2022-08-19T05:04:59;17.70;99.90
25652;DHT22;13508;50.734;4.232;2022-08-19T05:08:03;17.70;99.90
25652;DHT22;13508;50.734;4.232;2022-08-19T05:11:19;17.80;99.90
25652;DHT22;13508;50.734;4.232;2022-08-19T05:14:23;17.90;99.90
25652;DHT22;13508;50.734;4.232;2022-08-19T05:17:27;17.90;99.90
25652;DHT22;13508;50.734;4.232;2022-08-19T05:20:30;17.80;99.90
25652;DHT22;13508;50.734;4.232;2022-08-19T05:23:54;17.90;99.90
25652;DHT22;13508;50.734;4.232;2022-08-19T05:26:57;17.90;99.90
25652;DHT22;13508;50.734;4.232;2022-08-19T05:30:04;17.90;99.90
25652;DHT22;13508;50.734;4.232;2022-08-19T05:33:07;17.90;99.90
25652;DHT22;13508;50.734;4.232;2022-08-19T05:36:14;18.10;99.90
25652;DHT22;13508;50.734;4.232;2022-08-19T05:39:19;18.00;99.90
25652;DHT22;13508;50.734;4.232;2022-08-19T05:42:26;18.10;99.90
25652;DHT22;13508;50.734;4.232;2022-08-19T05:45:32;18.30;99.90
25652;DHT22;13508;50.734;4.232;2022-08-19T05:48:36;18.50;99.90
25652;DHT22;13508;50.734;4.232;2022-08-19T05:51:39;18.40;99.90
25652;DHT22;13508;50.734;4.232;2022-08-19T05:54:43;18.50;99.90
25652;DHT22;13508;50.734;4.232;2022-08-19T05:57:46;18.90;99.90
25652;DHT22;13508;50.734;4.232;2022-08-19T06:00:49;19.20;99.90
25652;DHT22;13508;50.734;4.232;2022-08-19T06:03:53;19.50;99.90
25652;DHT22;13508;50.734;4.232;2022-08-19T06:06:56;19.50;99.90
25652;DHT22;13508;50.734;4.232;2022-08-19T06:10:03;19.80;99.90
25652;DHT22;13508;50.734;4.232;2022-08-19T06:13:07;19.90;99.90
25652;DHT22;13508;50.734;4.232;2022-08-19T06:16:09;19.50;99.90
25652;DHT22;13508;50.734;4.232;2022-08-19T06:19:17;19.50;99.90
25652;DHT22;13508;50.734;4.232;2022-08-19T06:22:20;19.80;99.90
25652;DHT22;13508;50.734;4.232;2022-08-19T06:25:23;20.00;99.90
25652;DHT22;13508;50.734;4.232;2022-08-19T06:28:27;20.00;99.90
25652;DHT22;13508;50.734;4.232;2022-08-19T06:31:30;20.60;99.90
25652;DHT22;13508;50.734;4.232;2022-08-19T06:34:36;21.00;99.90
25652;DHT22;13508;50.734;4.232;2022-08-19T06:37:39;20.70;99.90
25652;DHT22;13508;50.734;4.232;2022-08-19T06:40:43;20.60;99.90
25652;DHT22;13508;50.734;4.232;2022-08-19T06:43:46;20.30;99.90
25652;DHT22;13508;50.734;4.232;2022-08-19T06:46:53;20.00;99.90
25652;DHT22;13508;50.734;4.232;2022-08-19T06:49:57;19.50;99.90
25652;DHT22;13508;50.734;4.232;2022-08-19T06:53:04;19.50;99.90
25652;DHT22;13508;50.734;4.232;2022-08-19T06:56:10;19.70;99.90
25652;DHT22;13508;50.734;4.232;2022-08-19T06:59:19;20.00;99.90
25652;DHT22;13508;50.734;4.232;2022-08-19T07:02:26;20.30;99.90
25652;DHT22;13508;50.734;4.232;2022-08-19T07:05:29;20.00;99.90
25652;DHT22;13508;50.734;4.232;2022-08-19T07:08:33;20.20;99.90
25652;DHT22;13508;50.734;4.232;2022-08-19T07:11:45;19.80;99.90
25652;DHT22;13508;50.734;4.232;2022-08-19T07:14:48;19.90;99.90
25652;DHT22;13508;50.734;4.232;2022-08-19T07:17:52;19.90;99.90
25652;DHT22;13508;50.734;4.232;2022-08-19T07:21:13;20.30;99.90
25652;DHT22;13508;50.734;4.232;2022-08-19T07:24:17;20.40;99.90
25652;DHT22;13508;50.734;4.232;2022-08-19T07:27:21;20.30;99.90
25652;DHT22;13508;50.734;4.232;2022-08-19T07:30:24;20.50;99.90
25652;DHT22;13508;50.734;4.232;2022-08-19T07:33:27;21.00;99.90
25652;DHT22;13508;50.734;4.232;2022-08-19T07:36:37;21.20;99.90
25652;DHT22;13508;50.734;4.232;2022-08-19T07:39:41;20.70;99.90
25652;DHT22;13508;50.734;4.232;2022-08-19T07:42:44;20.70;99.90
25652;DHT22;13508;50.734;4.232;2022-08-19T07:45:48;21.10;99.90
25652;DHT22;13508;50.734;4.232;2022-08-19T07:48:51;21.00;99.90
25652;DHT22;13508;50.734;4.232;2022-08-19T07:52:12;21.10;99.90
25652;DHT22;13508;50.734;4.232;2022-08-19T07:55:18;21.00;99.90
25652;DHT22;13508;50.734;4.232;2022-08-19T07:58:22;20.80;99.90
25652;DHT22;13508;50.734;4.232;2022-08-19T08:01:27;20.90;99.90
25652;DHT22;13508;50.734;4.232;2022-08-19T08:04:31;21.10;99.90
25652;DHT22;13508;50.734;4.232;2022-08-19T08:07:53;21.20;99.90
25652;DHT22;13508;50.734;4.232;2022-08-19T08:11:18;20.90;99.90
25652;DHT22;13508;50.734;4.232;2022-08-19T08:14:31;20.70;99.90
25652;DHT22;13508;50.734;4.232;2022-08-19T08:17:35;20.60;99.90
25652;DHT22;13508;50.734;4.232;2022-08-19T08:20:39;20.90;99.90
25652;DHT22;13508;50.734;4.232;2022-08-19T08:23:42;21.20;99.90
25652;DHT22;13508;50.734;4.232;2022-08-19T08:26:46;20.90;99.90
25652;DHT22;13508;50.734;4.232;2022-08-19T08:29:50;21.10;99.90
25652;DHT22;13508;50.734;4.232;2022-08-19T08:32:53;21.40;99.90
25652;DHT22;13508;50.734;4.232;2022-08-19T08:35:57;21.60;99.90
25652;DHT22;13508;50.734;4.232;2022-08-19T08:39:01;21.30;99.90
25652;DHT22;13508;50.734;4.232;2022-08-19T08:42:11;21.30;99.90
25652;DHT22;13508;50.734;4.232;2022-08-19T08:45:18;21.30;99.90
25652;DHT22;13508;50.734;4.232;2022-08-19T08:51:44;21.40;99.90
25652;DHT22;13508;50.734;4.232;2022-08-19T08:54:55;21.60;99.90
25652;DHT22;13508;50.734;4.232;2022-08-19T09:01:12;21.40;99.90
25652;DHT22;13508;50.734;4.232;2022-08-19T09:04:16;21.40;99.90
25652;DHT22;13508;50.734;4.232;2022-08-19T09:10:38;21.50;99.90
25652;DHT22;13508;50.734;4.232;2022-08-19T09:17:05;21.90;99.90
25652;DHT22;13508;50.734;4.232;2022-08-19T09:20:22;21.90;99.90
25652;DHT22;13508;50.734;4.232;2022-08-19T09:23:25;21.70;99.90
25652;DHT22;13508;50.734;4.232;2022-08-19T09:26:29;21.80;99.90
25652;DHT22;13508;50.734;4.232;2022-08-19T09:29:35;21.60;99.90
25652;DHT22;13508;50.734;4.232;2022-08-19T09:32:38;21.80;99.90
25652;DHT22;13508;50.734;4.232;2022-08-19T09:35:47;21.80;99.90
25652;DHT22;13508;50.734;4.232;2022-08-19T09:38:54;21.70;99.90
25652;DHT22;13508;50.734;4.232;2022-08-19T09:41:57;21.50;99.90
25652;DHT22;13508;50.734;4.232;2022-08-19T09:45:01;21.50;99.90
25652;DHT22;13508;50.734;4.232;2022-08-19T09:48:05;21.50;99.90
25652;DHT22;13508;50.734;4.232;2022-08-19T09:51:12;21.70;99.90
25652;DHT22;13508;50.734;4.232;2022-08-19T09:54:18;21.40;99.90
25652;DHT22;13508;50.734;4.232;2022-08-19T09:57:21;21.30;99.90
25652;DHT22;13508;50.734;4.232;2022-08-19T10:00:25;21.50;99.90
25652;DHT22;13508;50.734;4.232;2022-08-19T10:03:30;22.00;99.90
25652;DHT22;13508;50.734;4.232;2022-08-19T10:06:35;22.00;99.90
25652;DHT22;13508;50.734;4.232;2022-08-19T10:09:38;21.80;99.90
25652;DHT22;13508;50.734;4.232;2022-08-19T10:12:43;21.80;99.90
25652;DHT22;13508;50.734;4.232;2022-08-19T10:15:54;22.20;99.90
25652;DHT22;13508;50.734;4.232;2022-08-19T10:18:59;22.30;99.90
25652;DHT22;13508;50.734;4.232;2022-08-19T10:22:05;22.60;99.90
25652;DHT22;13508;50.734;4.232;2022-08-19T10:25:10;22.20;99.90
25652;DHT22;13508;50.734;4.232;2022-08-19T10:28:13;22.20;99.90
25652;DHT22;13508;50.734;4.232;2022-08-19T10:31:20;22.40;99.90
25652;DHT22;13508;50.734;4.232;2022-08-19T10:34:24;22.20;99.90
25652;DHT22;13508;50.734;4.232;2022-08-19T10:37:27;22.00;99.90
25652;DHT22;13508;50.734;4.232;2022-08-19T10:40:33;22.10;99.90
25652;DHT22;13508;50.734;4.232;2022-08-19T10:43:38;22.20;99.90
25652;DHT22;13508;50.734;4.232;2022-08-19T10:46:43;22.30;99.90
25652;DHT22;13508;50.734;4.232;2022-08-19T10:49:49;22.40;99.90
25652;DHT22;13508;50.734;4.232;2022-08-19T10:53:11;22.70;99.90
25652;DHT22;13508;50.734;4.232;2022-08-19T10:56:14;22.80;99.90
25652;DHT22;13508;50.734;4.232;2022-08-19T10:59:36;23.00;99.90
25652;DHT22;13508;50.734;4.232;2022-08-19T11:02:41;23.20;99.90
25652;DHT22;13508;50.734;4.232;2022-08-19T11:05:44;23.20;99.90
25652;DHT22;13508;50.734;4.232;2022-08-19T11:08:47;22.90;99.90
25652;DHT22;13508;50.734;4.232;2022-08-19T11:11:51;22.90;99.90
25652;DHT22;13508;50.734;4.232;2022-08-19T11:14:56;22.80;99.90
25652;DHT22;13508;50.734;4.232;2022-08-19T11:17:59;22.70;99.90
25652;DHT22;13508;50.734;4.232;2022-08-19T11:21:26;22.50;99.90
25652;DHT22;13508;50.734;4.232;2022-08-19T11:24:30;22.70;99.90
25652;DHT22;13508;50.734;4.232;2022-08-19T11:27:33;22.70;99.90
25652;DHT22;13508;50.734;4.232;2022-08-19T11:30:40;23.00;99.90
25652;DHT22;13508;50.734;4.232;2022-08-19T11:33:43;23.20;99.90
25652;DHT22;13508;50.734;4.232;2022-08-19T11:36:48;23.30;99.90
25652;DHT22;13508;50.734;4.232;2022-08-19T11:39:51;23.50;99.90
25652;DHT22;13508;50.734;4.232;2022-08-19T11:42:54;23.60;99.90
25652;DHT22;13508;50.734;4.232;2022-08-19T11:45:58;24.00;99.90
25652;DHT22;13508;50.734;4.232;2022-08-19T11:49:02;24.40;99.90
25652;DHT22;13508;50.734;4.232;2022-08-19T11:52:06;24.50;99.90
25652;DHT22;13508;50.734;4.232;2022-08-19T11:55:09;24.60;99.90
25652;DHT22;13508;50.734;4.232;2022-08-19T11:58:14;24.50;99.90
25652;DHT22;13508;50.734;4.232;2022-08-19T12:01:21;24.60;99.90
25652;DHT22;13508;50.734;4.232;2022-08-19T12:04:24;24.70;99.90
25652;DHT22;13508;50.734;4.232;2022-08-19T12:07:28;24.70;99.90
25652;DHT22;13508;50.734;4.232;2022-08-19T12:10:33;25.30;99.90
25652;DHT22;13508;50.734;4.232;2022-08-19T12:13:37;25.40;99.90
25652;DHT22;13508;50.734;4.232;2022-08-19T12:16:45;25.20;99.90
25652;DHT22;13508;50.734;4.232;2022-08-19T12:19:49;24.90;99.90
25652;DHT22;13508;50.734;4.232;2022-08-19T12:22:52;24.70;99.90
25652;DHT22;13508;50.734;4.232;2022-08-19T12:25:56;25.20;99.90
25652;DHT22;13508;50.734;4.232;2022-08-19T12:28:59;25.50;99.90
25652;DHT22;13508;50.734;4.232;2022-08-19T12:32:03;25.20;99.90
25652;DHT22;13508;50.734;4.232;2022-08-19T12:35:07;25.10;99.90
25652;DHT22;13508;50.734;4.232;2022-08-19T12:38:12;25.40;99.90
25652;DHT22;13508;50.734;4.232;2022-08-19T12:41:16;26.00;99.90
25652;DHT22;13508;50.734;4.232;2022-08-19T12:44:22;25.70;99.90
25652;DHT22;13508;50.734;4.232;2022-08-19T12:47:26;25.20;99.90
25652;DHT22;13508;50.734;4.232;2022-08-19T12:50:30;25.20;99.90
25652;DHT22;13508;50.734;4.232;2022-08-19T12:53:33;25.40;99.90
25652;DHT22;13508;50.734;4.232;2022-08-19T12:56:36;25.40;99.90
25652;DHT22;13508;50.734;4.232;2022-08-19T12:59:39;25.30;99.90
25652;DHT22;13508;50.734;4.232;2022-08-19T13:02:46;25.40;99.90
25652;DHT22;13508;50.734;4.232;2022-08-19T13:05:50;25.40;99.90
25652;DHT22;13508;50.734;4.232;2022-08-19T13:08:54;25.40;99.90
25652;DHT22;13508;50.734;4.232;2022-08-19T13:11:57;25.60;99.90
25652;DHT22;13508;50.734;4.232;2022-08-19T13:15:01;25.40;99.90
25652;DHT22;13508;50.734;4.232;2022-08-19T13:18:06;25.40;99.90
25652;DHT22;13508;50.734;4.232;2022-08-19T13:21:10;25.50;99.90
25652;DHT22;13508;50.734;4.232;2022-08-19T13:24:16;25.50;99.90
25652;DHT22;13508;50.734;4.232;2022-08-19T13:27:19;25.90;99.90
25652;DHT22;13508;50.734;4.232;2022-08-19T13:30:23;25.70;99.90
25652;DHT22;13508;50.734;4.232;2022-08-19T13:33:46;25.50;99.90
25652;DHT22;13508;50.734;4.232;2022-08-19T13:36:48;25.30;99.90
25652;DHT22;13508;50.734;4.232;2022-08-19T13:39:51;25.00;99.90
25652;DHT22;13508;50.734;4.232;2022-08-19T13:42:55;25.10;99.90
25652;DHT22;13508;50.734;4.232;2022-08-19T13:45:58;24.50;99.90
25652;DHT22;13508;50.734;4.232;2022-08-19T13:49:02;24.30;99.90
25652;DHT22;13508;50.734;4.232;2022-08-19T13:52:06;24.00;99.90
25652;DHT22;13508;50.734;4.232;2022-08-19T13:55:11;23.40;99.90
25652;DHT22;13508;50.734;4.232;2022-08-19T13:58:15;22.80;99.90
25652;DHT22;13508;50.734;4.232;2022-08-19T14:01:20;22.50;99.90
25652;DHT22;13508;50.734;4.232;2022-08-19T14:04:23;21.90;99.90
25652;DHT22;13508;50.734;4.232;2022-08-19T14:07:27;21.90;99.90
25652;DHT22;13508;50.734;4.232;2022-08-19T14:10:31;22.00;99.90
25652;DHT22;13508;50.734;4.232;2022-08-19T14:13:35;21.90;99.90
25652;DHT22;13508;50.734;4.232;2022-08-19T14:16:38;22.10;99.90
25652;DHT22;13508;50.734;4.232;2022-08-19T14:19:42;22.10;99.90
25652;DHT22;13508;50.734;4.232;2022-08-19T14:22:47;22.20;99.90
25652;DHT22;13508;50.734;4.232;2022-08-19T14:25:50;22.50;99.90
25652;DHT22;13508;50.734;4.232;2022-08-19T14:28:53;22.90;99.90
25652;DHT22;13508;50.734;4.232;2022-08-19T14:32:00;23.60;99.90
25652;DHT22;13508;50.734;4.232;2022-08-19T14:35:05;23.70;99.90
25652;DHT22;13508;50.734;4.232;2022-08-19T14:38:15;23.70;99.90
25652;DHT22;13508;50.734;4.232;2022-08-19T14:41:22;24.20;99.90
25652;DHT22;13508;50.734;4.232;2022-08-19T14:44:24;24.40;99.90
25652;DHT22;13508;50.734;4.232;2022-08-19T14:47:28;24.00;99.90
25652;DHT22;13508;50.734;4.232;2022-08-19T14:50:31;23.90;99.90
25652;DHT22;13508;50.734;4.232;2022-08-19T14:53:35;24.10;99.90
25652;DHT22;13508;50.734;4.232;2022-08-19T14:56:40;23.70;99.90
25652;DHT22;13508;50.734;4.232;2022-08-19T14:59:44;23.80;99.90
25652;DHT22;13508;50.734;4.232;2022-08-19T15:02:47;23.60;99.90
25652;DHT22;13508;50.734;4.232;2022-08-19T15:05:49;23.60;99.90
25652;DHT22;13508;50.734;4.232;2022-08-19T15:08:52;23.80;99.90
25652;DHT22;13508;50.734;4.232;2022-08-19T15:11:56;24.00;99.90
25652;DHT22;13508;50.734;4.232;2022-08-19T15:15:02;24.20;99.90
25652;DHT22;13508;50.734;4.232;2022-08-19T15:18:06;24.00;99.90
25652;DHT22;13508;50.734;4.232;2022-08-19T15:21:11;24.40;99.90
25652;DHT22;13508;50.734;4.232;2022-08-19T15:24:15;24.40;99.90
25652;DHT22;13508;50.734;4.232;2022-08-19T15:27:20;24.90;99.90
25652;DHT22;13508;50.734;4.232;2022-08-19T15:30:26;24.80;99.90
25652;DHT22;13508;50.734;4.232;2022-08-19T15:33:35;25.20;99.90
25652;DHT22;13508;50.734;4.232;2022-08-19T15:36:39;25.60;99.90
25652;DHT22;13508;50.734;4.232;2022-08-19T15:39:42;25.50;99.90
25652;DHT22;13508;50.734;4.232;2022-08-19T15:42:46;25.70;99.90
25652;DHT22;13508;50.734;4.232;2022-08-19T15:45:49;25.70;99.90
25652;DHT22;13508;50.734;4.232;2022-08-19T15:48:53;25.80;99.90
25652;DHT22;13508;50.734;4.232;2022-08-19T15:51:57;25.90;99.90
25652;DHT22;13508;50.734;4.232;2022-08-19T15:55:04;26.00;99.90
25652;DHT22;13508;50.734;4.232;2022-08-19T15:58:12;25.90;99.90
25652;DHT22;13508;50.734;4.232;2022-08-19T16:01:34;25.80;99.90
25652;DHT22;13508;50.734;4.232;2022-08-19T16:04:56;25.50;99.90
25652;DHT22;13508;50.734;4.232;2022-08-19T16:08:18;25.20;99.90
25652;DHT22;13508;50.734;4.232;2022-08-19T16:11:23;24.80;99.90
25652;DHT22;13508;50.734;4.232;2022-08-19T16:14:29;25.00;99.90
25652;DHT22;13508;50.734;4.232;2022-08-19T16:17:32;24.80;99.90
25652;DHT22;13508;50.734;4.232;2022-08-19T16:20:37;24.40;99.90
25652;DHT22;13508;50.734;4.232;2022-08-19T16:23:40;24.40;99.90
25652;DHT22;13508;50.734;4.232;2022-08-19T16:26:44;24.40;99.90
25652;DHT22;13508;50.734;4.232;2022-08-19T16:29:48;24.50;99.90
25652;DHT22;13508;50.734;4.232;2022-08-19T16:32:51;24.50;99.90
25652;DHT22;13508;50.734;4.232;2022-08-19T16:35:54;24.40;99.90
25652;DHT22;13508;50.734;4.232;2022-08-19T16:38:58;24.30;99.90
25652;DHT22;13508;50.734;4.232;2022-08-19T16:42:02;24.30;99.90
25652;DHT22;13508;50.734;4.232;2022-08-19T16:45:06;24.20;99.90
25652;DHT22;13508;50.734;4.232;2022-08-19T16:48:10;24.40;99.90
25652;DHT22;13508;50.734;4.232;2022-08-19T16:51:15;24.30;99.90
25652;DHT22;13508;50.734;4.232;2022-08-19T16:54:18;24.20;99.90
25652;DHT22;13508;50.734;4.232;2022-08-19T16:57:22;24.00;99.90
25652;DHT22;13508;50.734;4.232;2022-08-19T17:00:25;23.70;99.90
25652;DHT22;13508;50.734;4.232;2022-08-19T17:03:29;23.60;99.90
25652;DHT22;13508;50.734;4.232;2022-08-19T17:06:33;23.40;99.90
25652;DHT22;13508;50.734;4.232;2022-08-19T17:09:38;23.30;99.90
25652;DHT22;13508;50.734;4.232;2022-08-19T17:12:41;23.20;99.90
25652;DHT22;13508;50.734;4.232;2022-08-19T17:15:44;22.90;99.90
25652;DHT22;13508;50.734;4.232;2022-08-19T17:18:47;22.60;99.90
25652;DHT22;13508;50.734;4.232;2022-08-19T17:21:54;22.10;99.90
25652;DHT22;13508;50.734;4.232;2022-08-19T17:24:59;21.90;99.90
25652;DHT22;13508;50.734;4.232;2022-08-19T17:28:15;21.90;99.90
25652;DHT22;13508;50.734;4.232;2022-08-19T17:31:20;22.00;99.90
25652;DHT22;13508;50.734;4.232;2022-08-19T17:34:24;21.90;99.90
25652;DHT22;13508;50.734;4.232;2022-08-19T17:37:28;21.90;99.90
25652;DHT22;13508;50.734;4.232;2022-08-19T17:40:31;21.90;99.90
25652;DHT22;13508;50.734;4.232;2022-08-19T17:43:35;22.00;99.90
25652;DHT22;13508;50.734;4.232;2022-08-19T17:46:38;22.00;99.90
25652;DHT22;13508;50.734;4.232;2022-08-19T17:49:41;22.20;99.90
25652;DHT22;13508;50.734;4.232;2022-08-19T17:52:45;22.20;99.90
25652;DHT22;13508;50.734;4.232;2022-08-19T17:55:48;22.30;99.90
25652;DHT22;13508;50.734;4.232;2022-08-19T17:58:51;22.60;99.90
25652;DHT22;13508;50.734;4.232;2022-08-19T18:01:54;22.50;99.90
25652;DHT22;13508;50.734;4.232;2022-08-19T18:04:58;22.40;99.90
25652;DHT22;13508;50.734;4.232;2022-08-19T18:08:00;22.40;99.90
25652;DHT22;13508;50.734;4.232;2022-08-19T18:11:05;22.40;99.90
25652;DHT22;13508;50.734;4.232;2022-08-19T18:14:08;22.50;99.90
25652;DHT22;13508;50.734;4.232;2022-08-19T18:17:13;22.40;99.90
25652;DHT22;13508;50.734;4.232;2022-08-19T18:20:19;22.30;99.90
25652;DHT22;13508;50.734;4.232;2022-08-19T18:23:23;22.40;99.90
25652;DHT22;13508;50.734;4.232;2022-08-19T18:26:26;22.50;99.90
25652;DHT22;13508;50.734;4.232;2022-08-19T18:29:30;22.60;99.90
25652;DHT22;13508;50.734;4.232;2022-08-19T18:32:37;22.50;99.90
25652;DHT22;13508;50.734;4.232;2022-08-19T18:35:44;22.50;99.90
25652;DHT22;13508;50.734;4.232;2022-08-19T18:38:48;22.50;99.90
25652;DHT22;13508;50.734;4.232;2022-08-19T18:42:14;22.40;99.90
25652;DHT22;13508;50.734;4.232;2022-08-19T18:45:37;22.30;99.90
25652;DHT22;13508;50.734;4.232;2022-08-19T18:48:59;22.30;99.90
25652;DHT22;13508;50.734;4.232;2022-08-19T18:52:08;22.20;99.90
25652;DHT22;13508;50.734;4.232;2022-08-19T18:55:11;21.90;99.90
25652;DHT22;13508;50.734;4.232;2022-08-19T18:58:15;21.90;99.90
25652;DHT22;13508;50.734;4.232;2022-08-19T19:01:24;21.80;99.90
25652;DHT22;13508;50.734;4.232;2022-08-19T19:04:32;21.70;99.90
25652;DHT22;13508;50.734;4.232;2022-08-19T19:07:40;21.60;99.90
25652;DHT22;13508;50.734;4.232;2022-08-19T19:10:44;21.60;99.90
25652;DHT22;13508;50.734;4.232;2022-08-19T19:13:47;21.50;99.90
25652;DHT22;13508;50.734;4.232;2022-08-19T19:16:51;21.40;99.90
25652;DHT22;13508;50.734;4.232;2022-08-19T19:19:54;21.40;99.90
25652;DHT22;13508;50.734;4.232;2022-08-19T19:22:57;21.40;99.90
25652;DHT22;13508;50.734;4.232;2022-08-19T19:26:00;21.50;99.90
25652;DHT22;13508;50.734;4.232;2022-08-19T19:29:03;21.50;99.90
25652;DHT22;13508;50.734;4.232;2022-08-19T19:32:10;21.60;99.90
25652;DHT22;13508;50.734;4.232;2022-08-19T19:35:14;21.50;99.90
25652;DHT22;13508;50.734;4.232;2022-08-19T19:38:17;21.30;99.90
25652;DHT22;13508;50.734;4.232;2022-08-19T19:41:22;21.30;99.90